Nord Nanami — 3EWR2 — position and weather

sailwx.info

Track history (hours):
 
Tides and Currents Weather Stations Pressure Air Temp Water Temp Dewpoint Dewpoint Depression Visibility Wind Speed Wind Dir Waves Ship Positions

Nord Nanami

Last reported at 2018-May-15 15:21 UTC. Time now 2018-May-26 15:39 UTC.
Position N 09°11' W 079°52'.
Warning: this ship's position is 11 days out of date.

Length 180 m; draft 10.5 m.

Type: Ship. MMSI: 373694000.

Date/timePositionNaut miles runAvg speedWind from/ knotsBaromVisibWave heightAir tempDewpointWater temp
2018-May-15 15:21N 09°11' W 079°52'7 4.6
2018-May-15 13:55N 09°16' W 079°55'0 0.7
2018-May-15 13:30N 09°17' W 079°55'0 0.7
2018-May-15 13:00N 09°17' W 079°55'3 5.3
2018-May-15 12:30N 09°20' W 079°55'4 7.5
2018-May-15 12:00N 09°23' W 079°55'1 2.6
2018-May-15 11:30N 09°25' W 079°55'2 3.2
2018-May-15 11:00N 09°26' W 079°56'0 0.1
2018-May-15 10:30N 09°26' W 079°56'0 0.0
2018-May-15 10:00N 09°26' W 079°56'0 0.0
2018-May-15 09:30N 09°26' W 079°56'0 0.0
2018-May-15 09:00N 09°26' W 079°56'0 0.0
2018-May-15 08:30N 09°26' W 079°56'0 0.0
2018-May-15 08:00N 09°26' W 079°56'0 0.0
2018-May-15 07:30N 09°26' W 079°56'0 0.0
2018-May-15 07:00N 09°26' W 079°56'0 0.0
2018-May-15 06:27N 09°26' W 079°56'0 0.0
2018-May-15 06:00N 09°26' W 079°56'0 0.0
2018-May-15 05:30N 09°26' W 079°56'0 0.0
2018-May-15 05:00N 09°26' W 079°56'0 0.0
2018-May-15 04:30N 09°26' W 079°56'0 0.0
2018-May-15 04:00N 09°26' W 079°56'0 0.0
2018-May-15 03:30N 09°26' W 079°56'0 0.0
2018-May-15 03:00N 09°26' W 079°56'0 0.0
2018-May-15 02:30N 09°26' W 079°56'0 0.0
2018-May-15 02:00N 09°26' W 079°56'0 0.0
2018-May-15 01:30N 09°26' W 079°56'0 0.0
2018-May-15 01:00N 09°26' W 079°56'0 0.0
2018-May-15 00:30N 09°26' W 079°56'0 0.0
2018-May-15 00:00N 09°26' W 079°56'0 0.0
2018-May-14 23:27N 09°26' W 079°56'0 0.0
2018-May-14 23:00N 09°26' W 079°56'0 0.0
2018-May-14 22:30N 09°26' W 079°56'0 0.0
2018-May-14 22:00N 09°26' W 079°56'0 0.0
2018-May-14 21:30N 09°26' W 079°56'0 0.0
2018-May-14 21:00N 09°26' W 079°56'0 0.0
2018-May-14 20:30N 09°26' W 079°56'0 0.0
2018-May-14 20:00N 09°26' W 079°56'0 0.0
2018-May-14 19:30N 09°26' W 079°56'0 0.0
2018-May-14 19:00N 09°26' W 079°56'0 0.0
2018-May-14 18:30N 09°26' W 079°56'0 0.0
2018-May-14 18:00N 09°26' W 079°56'0 0.0
2018-May-14 17:30N 09°26' W 079°56'0 0.0
2018-May-14 17:00N 09°26' W 079°56'0 0.0
2018-May-14 16:30N 09°26' W 079°56'0 0.0
2018-May-14 16:00N 09°26' W 079°56'0 0.0
2018-May-14 15:30N 09°26' W 079°56'0 0.0
2018-May-14 15:00N 09°26' W 079°56'0 0.0
2018-May-14 14:30N 09°26' W 079°56'0 0.0
2018-May-14 14:00N 09°26' W 079°56'0 0.0
2018-May-14 13:30N 09°26' W 079°56'0 0.0
2018-May-14 13:00N 09°26' W 079°56'0 0.0
2018-May-14 12:30N 09°26' W 079°56'0 0.0
2018-May-14 11:54N 09°26' W 079°56'0 0.0
2018-May-14 11:30N 09°26' W 079°56'0 0.0
2018-May-14 11:00N 09°26' W 079°56'0 0.0
2018-May-14 10:30N 09°26' W 079°56'0 0.0
2018-May-14 10:00N 09°26' W 079°56'0 0.0
2018-May-14 09:30N 09°26' W 079°56'0 0.0
2018-May-14 09:00N 09°26' W 079°56'0 0.0
2018-May-14 08:30N 09°26' W 079°56'0 0.0
2018-May-14 08:00N 09°26' W 079°56'0 0.0
2018-May-14 07:30N 09°26' W 079°56'0 0.0
2018-May-14 07:00N 09°26' W 079°56'0 0.0
2018-May-14 06:30N 09°26' W 079°56'0 0.0
2018-May-14 06:00N 09°26' W 079°56'0 0.0
2018-May-14 05:30N 09°26' W 079°56'0 0.0
2018-May-14 05:00N 09°26' W 079°56'0 0.0
2018-May-14 04:30N 09°26' W 079°56'0 0.0
2018-May-14 04:00N 09°26' W 079°56'0 0.0
2018-May-14 03:30N 09°26' W 079°56'0 0.0
2018-May-14 03:00N 09°26' W 079°56'0 0.0
2018-May-14 02:30N 09°26' W 079°56'0 0.0
2018-May-14 02:00N 09°26' W 079°56'0 0.0
2018-May-14 01:30N 09°26' W 079°56'0 0.0
2018-May-14 01:00N 09°26' W 079°56'0 0.0
2018-May-14 00:30N 09°26' W 079°56'0 0.0
2018-May-14 00:00N 09°26' W 079°56'0 0.0
2018-May-13 23:30N 09°26' W 079°56'0 0.0
2018-May-13 23:00N 09°26' W 079°56'0 0.0
2018-May-13 22:30N 09°26' W 079°56'0 0.0
2018-May-13 22:00N 09°26' W 079°56'0 0.0
2018-May-13 21:30N 09°26' W 079°56'0 0.0
2018-May-13 21:00N 09°26' W 079°56'0 0.0
2018-May-13 20:30N 09°26' W 079°56'0 0.0
2018-May-13 20:00N 09°26' W 079°56'0 0.0
2018-May-13 19:30N 09°26' W 079°56'0 0.0
2018-May-13 19:00N 09°26' W 079°56'0 0.0
2018-May-13 18:30N 09°26' W 079°56'0 0.0
2018-May-13 18:00N 09°26' W 079°56'0 0.0
2018-May-13 17:30N 09°26' W 079°56'0 0.0
2018-May-13 17:00N 09°26' W 079°56'0 0.0
2018-May-13 16:30N 09°26' W 079°56'0 0.0
2018-May-13 16:00N 09°26' W 079°56'0 0.0
2018-May-13 15:30N 09°26' W 079°56'0 0.0
2018-May-13 15:00N 09°26' W 079°56'0 0.0
2018-May-13 14:30N 09°26' W 079°56'0 0.0
2018-May-13 14:00N 09°26' W 079°56'0 0.0
2018-May-13 13:30N 09°26' W 079°56'0 0.0
2018-May-13 13:00N 09°26' W 079°56'0 0.0
2018-May-13 12:30N 09°26' W 079°56'0 0.0
2018-May-13 12:00N 09°26' W 079°56'0 0.0
2018-May-13 11:30N 09°26' W 079°56'0 0.0
2018-May-13 11:00N 09°26' W 079°56'0 0.1
2018-May-13 10:30N 09°26' W 079°56'0 0.0
2018-May-13 10:00N 09°26' W 079°56'0 0.1
2018-May-13 09:30N 09°26' W 079°56'0 0.0
2018-May-13 09:00N 09°26' W 079°56'0 0.0
2018-May-13 08:30N 09°26' W 079°56'0 0.0
2018-May-13 08:00N 09°26' W 079°56'0 0.0
2018-May-13 07:30N 09°26' W 079°56'0 0.0
2018-May-13 07:00N 09°26' W 079°56'0 0.0
2018-May-13 06:30N 09°26' W 079°56'0 0.0
2018-May-13 06:00N 09°26' W 079°56'0 0.0
2018-May-13 05:30N 09°26' W 079°56'0 0.0
2018-May-13 05:00N 09°26' W 079°56'0 0.0
2018-May-13 04:30N 09°26' W 079°56'0 0.0
2018-May-13 04:00N 09°26' W 079°56'0 0.0
2018-May-13 03:27N 09°26' W 079°56'0 0.0
2018-May-13 03:00N 09°26' W 079°56'0 0.0
2018-May-13 02:30N 09°26' W 079°56'0 0.0
2018-May-13 02:00N 09°26' W 079°56'0 0.0
2018-May-13 01:30N 09°26' W 079°56'0 0.0
2018-May-13 01:00N 09°26' W 079°56'0 0.0
2018-May-13 00:30N 09°26' W 079°56'0 0.0
2018-May-13 00:00N 09°26' W 079°56'0 0.0
2018-May-12 23:30N 09°26' W 079°56'0 0.0
2018-May-12 23:00N 09°26' W 079°56'0 0.0
2018-May-12 22:30N 09°26' W 079°56'0 0.0
2018-May-12 22:00N 09°26' W 079°56'0 0.0
2018-May-12 21:30N 09°26' W 079°56'0 0.0
2018-May-12 21:00N 09°26' W 079°56'0 0.1
2018-May-12 20:30N 09°26' W 079°56'0 0.0
2018-May-12 20:00N 09°26' W 079°56'0 0.0
2018-May-12 19:30N 09°26' W 079°56'0 0.0
2018-May-12 19:00N 09°26' W 079°56'0 0.0
2018-May-12 18:30N 09°26' W 079°56'0 0.0
2018-May-12 18:00N 09°26' W 079°56'0 0.0
2018-May-12 17:30N 09°26' W 079°56'0 0.0
2018-May-12 17:00N 09°26' W 079°56'0 0.0
2018-May-12 16:30N 09°26' W 079°56'0 0.0
2018-May-12 16:00N 09°26' W 079°56'0 0.0
2018-May-12 15:30N 09°26' W 079°56'0 0.0
2018-May-12 15:00N 09°26' W 079°56'0 0.0
2018-May-12 14:30N 09°26' W 079°56'0 0.0
2018-May-12 14:00N 09°26' W 079°56'0 0.0
2018-May-12 13:30N 09°26' W 079°56'0 0.0
2018-May-12 13:00N 09°26' W 079°56'0 0.0
2018-May-12 12:30N 09°26' W 079°56'0 0.0
2018-May-12 12:00N 09°26' W 079°56'0 0.0
2018-May-12 11:27N 09°26' W 079°56'0 0.0
2018-May-12 11:00N 09°26' W 079°56'0 0.0
2018-May-12 10:30N 09°26' W 079°56'0 0.0
2018-May-12 10:00N 09°26' W 079°56'0 0.0
2018-May-12 09:30N 09°26' W 079°56'0 0.0
2018-May-12 09:00N 09°26' W 079°56'0 0.0
2018-May-12 08:30N 09°26' W 079°56'0 0.0
2018-May-12 08:00N 09°26' W 079°56'0 0.0
2018-May-12 07:30N 09°26' W 079°56'0 0.0
2018-May-12 07:00N 09°26' W 079°56'0 0.0
2018-May-12 06:30N 09°26' W 079°56'0 0.0
2018-May-12 06:00N 09°26' W 079°56'0 0.0
2018-May-12 05:30N 09°26' W 079°56'0 0.0
2018-May-12 05:00N 09°26' W 079°56'0 0.0
2018-May-12 04:30N 09°26' W 079°56'0 0.0
2018-May-12 04:00N 09°26' W 079°56'0 0.0
2018-May-12 03:30N 09°26' W 079°56'0 0.1
2018-May-12 03:00N 09°26' W 079°56'0 0.1
2018-May-12 02:30N 09°26' W 079°56'0 0.0
2018-May-12 02:00N 09°26' W 079°56'0 0.2
2018-May-12 01:31N 09°26' W 079°56'2 3.1
2018-May-12 01:00N 09°27' W 079°55'4 8.5
2018-May-12 00:29N 09°31' W 079°54'5 9.8
2018-May-11 23:58N 09°36' W 079°52'  
2018-May-08 11:43N 16°21' W 062°24'312.0
2018-May-08 11:30N 16°22' W 062°21'612.0
2018-May-08 11:00N 16°24' W 062°15'611.7
2018-May-08 10:30N 16°26' W 062°10'612.4
2018-May-08 09:59N 16°30' W 062°04'612.7
2018-May-08 09:30N 16°33' W 061°59'612.6
2018-May-08 09:00N 16°36' W 061°53'612.6
2018-May-08 08:30N 16°39' W 061°47'612.5
2018-May-08 08:00N 16°42' W 061°42'612.7
2018-May-08 07:30N 16°46' W 061°36'612.8
2018-May-08 07:00N 16°49' W 061°31'612.7
2018-May-08 06:30N 16°53' W 061°25'612.4
2018-May-08 06:00N 16°56' W 061°19'612.3
2018-May-08 05:30N 16°59' W 061°14'612.2
2018-May-08 05:01N 17°03' W 061°09'612.6
2018-May-08 04:30N 17°06' W 061°03'612.3
2018-May-08 03:59N 17°10' W 060°57'  
Track history (hours):
 
Tides and Currents Weather Stations Pressure Air Temp Water Temp Dewpoint Dewpoint Depression Visibility Wind Speed Wind Dir Waves Ship Positions

Nord Nanami

Last reported at 2018-May-15 15:21 UTC. Time now 2018-May-26 15:39 UTC.
Position N 09°11' W 079°52'.
Warning: this ship's position is 11 days out of date.

Length 180 m; draft 10.5 m.

Type: Ship. MMSI: 373694000.

Date/timePositionNaut miles runAvg speedWind from/ knotsBaromVisibWave heightAir tempDewpointWater temp
2018-May-15 15:21N 09°11' W 079°52'7 4.6
2018-May-15 13:55N 09°16' W 079°55'0 0.7
2018-May-15 13:30N 09°17' W 079°55'0 0.7
2018-May-15 13:00N 09°17' W 079°55'3 5.3
2018-May-15 12:30N 09°20' W 079°55'4 7.5
2018-May-15 12:00N 09°23' W 079°55'1 2.6
2018-May-15 11:30N 09°25' W 079°55'2 3.2
2018-May-15 11:00N 09°26' W 079°56'0 0.1
2018-May-15 10:30N 09°26' W 079°56'0 0.0
2018-May-15 10:00N 09°26' W 079°56'0 0.0
2018-May-15 09:30N 09°26' W 079°56'0 0.0
2018-May-15 09:00N 09°26' W 079°56'0 0.0
2018-May-15 08:30N 09°26' W 079°56'0 0.0
2018-May-15 08:00N 09°26' W 079°56'0 0.0
2018-May-15 07:30N 09°26' W 079°56'0 0.0
2018-May-15 07:00N 09°26' W 079°56'0 0.0
2018-May-15 06:27N 09°26' W 079°56'0 0.0
2018-May-15 06:00N 09°26' W 079°56'0 0.0
2018-May-15 05:30N 09°26' W 079°56'0 0.0
2018-May-15 05:00N 09°26' W 079°56'0 0.0
2018-May-15 04:30N 09°26' W 079°56'0 0.0
2018-May-15 04:00N 09°26' W 079°56'0 0.0
2018-May-15 03:30N 09°26' W 079°56'0 0.0
2018-May-15 03:00N 09°26' W 079°56'0 0.0
2018-May-15 02:30N 09°26' W 079°56'0 0.0
2018-May-15 02:00N 09°26' W 079°56'0 0.0
2018-May-15 01:30N 09°26' W 079°56'0 0.0
2018-May-15 01:00N 09°26' W 079°56'0 0.0
2018-May-15 00:30N 09°26' W 079°56'0 0.0
2018-May-15 00:00N 09°26' W 079°56'0 0.0
2018-May-14 23:27N 09°26' W 079°56'0 0.0
2018-May-14 23:00N 09°26' W 079°56'0 0.0
2018-May-14 22:30N 09°26' W 079°56'0 0.0
2018-May-14 22:00N 09°26' W 079°56'0 0.0
2018-May-14 21:30N 09°26' W 079°56'0 0.0
2018-May-14 21:00N 09°26' W 079°56'0 0.0
2018-May-14 20:30N 09°26' W 079°56'0 0.0
2018-May-14 20:00N 09°26' W 079°56'0 0.0
2018-May-14 19:30N 09°26' W 079°56'0 0.0
2018-May-14 19:00N 09°26' W 079°56'0 0.0
2018-May-14 18:30N 09°26' W 079°56'0 0.0
2018-May-14 18:00N 09°26' W 079°56'0 0.0
2018-May-14 17:30N 09°26' W 079°56'0 0.0
2018-May-14 17:00N 09°26' W 079°56'0 0.0
2018-May-14 16:30N 09°26' W 079°56'0 0.0
2018-May-14 16:00N 09°26' W 079°56'0 0.0
2018-May-14 15:30N 09°26' W 079°56'0 0.0
2018-May-14 15:00N 09°26' W 079°56'0 0.0
2018-May-14 14:30N 09°26' W 079°56'0 0.0
2018-May-14 14:00N 09°26' W 079°56'0 0.0
2018-May-14 13:30N 09°26' W 079°56'0 0.0
2018-May-14 13:00N 09°26' W 079°56'0 0.0
2018-May-14 12:30N 09°26' W 079°56'0 0.0
2018-May-14 11:54N 09°26' W 079°56'0 0.0
2018-May-14 11:30N 09°26' W 079°56'0 0.0
2018-May-14 11:00N 09°26' W 079°56'0 0.0
2018-May-14 10:30N 09°26' W 079°56'0 0.0
2018-May-14 10:00N 09°26' W 079°56'0 0.0
2018-May-14 09:30N 09°26' W 079°56'0 0.0
2018-May-14 09:00N 09°26' W 079°56'0 0.0
2018-May-14 08:30N 09°26' W 079°56'0 0.0
2018-May-14 08:00N 09°26' W 079°56'0 0.0
2018-May-14 07:30N 09°26' W 079°56'0 0.0
2018-May-14 07:00N 09°26' W 079°56'0 0.0
2018-May-14 06:30N 09°26' W 079°56'0 0.0
2018-May-14 06:00N 09°26' W 079°56'0 0.0
2018-May-14 05:30N 09°26' W 079°56'0 0.0
2018-May-14 05:00N 09°26' W 079°56'0 0.0
2018-May-14 04:30N 09°26' W 079°56'0 0.0
2018-May-14 04:00N 09°26' W 079°56'0 0.0
2018-May-14 03:30N 09°26' W 079°56'0 0.0
2018-May-14 03:00N 09°26' W 079°56'0 0.0
2018-May-14 02:30N 09°26' W 079°56'0 0.0
2018-May-14 02:00N 09°26' W 079°56'0 0.0
2018-May-14 01:30N 09°26' W 079°56'0 0.0
2018-May-14 01:00N 09°26' W 079°56'0 0.0
2018-May-14 00:30N 09°26' W 079°56'0 0.0
2018-May-14 00:00N 09°26' W 079°56'0 0.0
2018-May-13 23:30N 09°26' W 079°56'0 0.0
2018-May-13 23:00N 09°26' W 079°56'0 0.0
2018-May-13 22:30N 09°26' W 079°56'0 0.0
2018-May-13 22:00N 09°26' W 079°56'0 0.0
2018-May-13 21:30N 09°26' W 079°56'0 0.0
2018-May-13 21:00N 09°26' W 079°56'0 0.0
2018-May-13 20:30N 09°26' W 079°56'0 0.0
2018-May-13 20:00N 09°26' W 079°56'0 0.0
2018-May-13 19:30N 09°26' W 079°56'0 0.0
2018-May-13 19:00N 09°26' W 079°56'0 0.0
2018-May-13 18:30N 09°26' W 079°56'0 0.0
2018-May-13 18:00N 09°26' W 079°56'0 0.0
2018-May-13 17:30N 09°26' W 079°56'0 0.0
2018-May-13 17:00N 09°26' W 079°56'0 0.0
2018-May-13 16:30N 09°26' W 079°56'0 0.0
2018-May-13 16:00N 09°26' W 079°56'0 0.0
2018-May-13 15:30N 09°26' W 079°56'0 0.0
2018-May-13 15:00N 09°26' W 079°56'0 0.0
2018-May-13 14:30N 09°26' W 079°56'0 0.0
2018-May-13 14:00N 09°26' W 079°56'0 0.0
2018-May-13 13:30N 09°26' W 079°56'0 0.0
2018-May-13 13:00N 09°26' W 079°56'0 0.0
2018-May-13 12:30N 09°26' W 079°56'0 0.0
2018-May-13 12:00N 09°26' W 079°56'0 0.0
2018-May-13 11:30N 09°26' W 079°56'0 0.0
2018-May-13 11:00N 09°26' W 079°56'0 0.1
2018-May-13 10:30N 09°26' W 079°56'0 0.0
2018-May-13 10:00N 09°26' W 079°56'0 0.1
2018-May-13 09:30N 09°26' W 079°56'0 0.0
2018-May-13 09:00N 09°26' W 079°56'0 0.0
2018-May-13 08:30N 09°26' W 079°56'0 0.0
2018-May-13 08:00N 09°26' W 079°56'0 0.0
2018-May-13 07:30N 09°26' W 079°56'0 0.0
2018-May-13 07:00N 09°26' W 079°56'0 0.0
2018-May-13 06:30N 09°26' W 079°56'0 0.0
2018-May-13 06:00N 09°26' W 079°56'0 0.0
2018-May-13 05:30N 09°26' W 079°56'0 0.0
2018-May-13 05:00N 09°26' W 079°56'0 0.0
2018-May-13 04:30N 09°26' W 079°56'0 0.0
2018-May-13 04:00N 09°26' W 079°56'0 0.0
2018-May-13 03:27N 09°26' W 079°56'0 0.0
2018-May-13 03:00N 09°26' W 079°56'0 0.0
2018-May-13 02:30N 09°26' W 079°56'0 0.0
2018-May-13 02:00N 09°26' W 079°56'0 0.0
2018-May-13 01:30N 09°26' W 079°56'0 0.0
2018-May-13 01:00N 09°26' W 079°56'0 0.0
2018-May-13 00:30N 09°26' W 079°56'0 0.0
2018-May-13 00:00N 09°26' W 079°56'0 0.0
2018-May-12 23:30N 09°26' W 079°56'0 0.0
2018-May-12 23:00N 09°26' W 079°56'0 0.0
2018-May-12 22:30N 09°26' W 079°56'0 0.0
2018-May-12 22:00N 09°26' W 079°56'0 0.0
2018-May-12 21:30N 09°26' W 079°56'0 0.0
2018-May-12 21:00N 09°26' W 079°56'0 0.1
2018-May-12 20:30N 09°26' W 079°56'0 0.0
2018-May-12 20:00N 09°26' W 079°56'0 0.0
2018-May-12 19:30N 09°26' W 079°56'0 0.0
2018-May-12 19:00N 09°26' W 079°56'0 0.0
2018-May-12 18:30N 09°26' W 079°56'0 0.0
2018-May-12 18:00N 09°26' W 079°56'0 0.0
2018-May-12 17:30N 09°26' W 079°56'0 0.0
2018-May-12 17:00N 09°26' W 079°56'0 0.0
2018-May-12 16:30N 09°26' W 079°56'0 0.0
2018-May-12 16:00N 09°26' W 079°56'0 0.0
2018-May-12 15:30N 09°26' W 079°56'0 0.0
2018-May-12 15:00N 09°26' W 079°56'0 0.0
2018-May-12 14:30N 09°26' W 079°56'0 0.0
2018-May-12 14:00N 09°26' W 079°56'0 0.0
2018-May-12 13:30N 09°26' W 079°56'0 0.0
2018-May-12 13:00N 09°26' W 079°56'0 0.0
2018-May-12 12:30N 09°26' W 079°56'0 0.0
2018-May-12 12:00N 09°26' W 079°56'0 0.0
2018-May-12 11:27N 09°26' W 079°56'0 0.0
2018-May-12 11:00N 09°26' W 079°56'0 0.0
2018-May-12 10:30N 09°26' W 079°56'0 0.0
2018-May-12 10:00N 09°26' W 079°56'0 0.0
2018-May-12 09:30N 09°26' W 079°56'0 0.0
2018-May-12 09:00N 09°26' W 079°56'0 0.0
2018-May-12 08:30N 09°26' W 079°56'0 0.0
2018-May-12 08:00N 09°26' W 079°56'0 0.0
2018-May-12 07:30N 09°26' W 079°56'0 0.0
2018-May-12 07:00N 09°26' W 079°56'0 0.0
2018-May-12 06:30N 09°26' W 079°56'0 0.0
2018-May-12 06:00N 09°26' W 079°56'0 0.0
2018-May-12 05:30N 09°26' W 079°56'0 0.0
2018-May-12 05:00N 09°26' W 079°56'0 0.0
2018-May-12 04:30N 09°26' W 079°56'0 0.0
2018-May-12 04:00N 09°26' W 079°56'0 0.0
2018-May-12 03:30N 09°26' W 079°56'0 0.1
2018-May-12 03:00N 09°26' W 079°56'0 0.1
2018-May-12 02:30N 09°26' W 079°56'0 0.0
2018-May-12 02:00N 09°26' W 079°56'0 0.2
2018-May-12 01:31N 09°26' W 079°56'2 3.1
2018-May-12 01:00N 09°27' W 079°55'4 8.5
2018-May-12 00:29N 09°31' W 079°54'5 9.8
2018-May-11 23:58N 09°36' W 079°52'  
2018-May-08 11:43N 16°21' W 062°24'312.0
2018-May-08 11:30N 16°22' W 062°21'612.0
2018-May-08 11:00N 16°24' W 062°15'611.7
2018-May-08 10:30N 16°26' W 062°10'612.4
2018-May-08 09:59N 16°30' W 062°04'612.7
2018-May-08 09:30N 16°33' W 061°59'612.6
2018-May-08 09:00N 16°36' W 061°53'612.6
2018-May-08 08:30N 16°39' W 061°47'612.5
2018-May-08 08:00N 16°42' W 061°42'612.7
2018-May-08 07:30N 16°46' W 061°36'612.8
2018-May-08 07:00N 16°49' W 061°31'612.7
2018-May-08 06:30N 16°53' W 061°25'612.4
2018-May-08 06:00N 16°56' W 061°19'612.3
2018-May-08 05:30N 16°59' W 061°14'612.2
2018-May-08 05:01N 17°03' W 061°09'612.6
2018-May-08 04:30N 17°06' W 061°03'612.3
2018-May-08 03:59N 17°10' W 060°57'  

Dump ship's entire track history